createdAt,value
2022-12-06T00:00:00.840Z,5.92
2022-12-06T00:02:28.035Z,5.98
2022-12-06T00:04:55.096Z,6.02
2022-12-06T00:07:22.055Z,6.01
2022-12-06T00:09:49.035Z,6.01
2022-12-06T00:12:16.031Z,5.98
2022-12-06T00:14:42.934Z,6.04
2022-12-06T00:17:09.957Z,6.01
2022-12-06T00:19:37.043Z,6.00
2022-12-06T00:22:04.035Z,5.99
2022-12-06T00:24:31.214Z,5.99
2022-12-06T00:26:58.194Z,6.00
2022-12-06T00:29:25.278Z,6.02
2022-12-06T00:31:52.423Z,6.03
2022-12-06T00:34:19.548Z,6.01
2022-12-06T00:36:46.550Z,6.01
2022-12-06T00:39:15.975Z,5.98
2022-12-06T00:41:43.814Z,5.96
2022-12-06T00:44:11.525Z,5.96
2022-12-06T00:46:38.962Z,5.92
2022-12-06T00:49:07.434Z,5.93
2022-12-06T00:51:35.965Z,5.89
2022-12-06T00:54:03.333Z,5.82
2022-12-06T00:56:30.564Z,5.82
2022-12-06T00:58:58.154Z,5.79
2022-12-06T01:01:28.154Z,5.73
2022-12-06T01:04:00.155Z,5.64
2022-12-06T01:06:30.537Z,5.55
2022-12-06T01:09:00.134Z,5.53
2022-12-06T01:11:28.475Z,5.49
2022-12-06T01:13:55.616Z,5.47
2022-12-06T01:16:25.674Z,5.44
2022-12-06T01:18:59.440Z,5.40
2022-12-06T01:21:27.597Z,5.34
2022-12-06T01:23:54.716Z,5.31
2022-12-06T01:26:33.615Z,5.28
2022-12-06T01:29:01.434Z,5.20
2022-12-06T01:31:35.481Z,5.20
2022-12-06T01:34:02.834Z,5.19
2022-12-06T01:36:30.044Z,5.18
2022-12-06T01:38:58.762Z,5.18
2022-12-06T01:41:27.674Z,5.13
2022-12-06T01:43:55.556Z,5.12
2022-12-06T01:46:43.300Z,5.04
2022-12-06T01:49:13.356Z,5.04
2022-12-06T01:51:45.383Z,5.03
2022-12-06T01:54:15.095Z,5.02
2022-12-06T01:56:42.615Z,5.01
2022-12-06T01:59:11.897Z,4.97
2022-12-06T02:01:40.480Z,5.02
2022-12-06T02:04:08.596Z,4.99
2022-12-06T02:06:35.739Z,5.00
2022-12-06T02:09:06.130Z,5.03
2022-12-06T02:11:35.372Z,5.07
2022-12-06T02:14:05.943Z,5.07
2022-12-06T02:16:57.569Z,5.10
2022-12-06T02:19:30.415Z,5.03
2022-12-06T02:22:31.035Z,5.05
2022-12-06T02:25:19.675Z,5.09
2022-12-06T02:28:13.814Z,5.07
2022-12-06T02:31:02.808Z,5.09
2022-12-06T02:33:49.535Z,5.11
2022-12-06T02:36:31.294Z,5.11
2022-12-06T02:39:22.615Z,5.05
2022-12-06T02:42:27.316Z,5.05
2022-12-06T02:44:58.714Z,5.08
2022-12-06T02:47:30.814Z,5.09
2022-12-06T02:50:00.700Z,5.12
2022-12-06T02:52:28.914Z,5.12
2022-12-06T02:54:59.535Z,5.13
2022-12-06T02:57:48.317Z,5.16
2022-12-06T03:00:53.375Z,5.13
2022-12-06T03:03:38.402Z,5.09
2022-12-06T03:06:33.125Z,5.07
2022-12-06T03:09:25.735Z,5.02
2022-12-06T03:12:17.474Z,5.02
2022-12-06T03:15:00.810Z,4.97
2022-12-06T03:17:37.075Z,4.94
2022-12-06T03:20:10.415Z,4.91
2022-12-06T03:22:42.787Z,4.89
2022-12-06T03:25:11.214Z,4.84
2022-12-06T03:27:41.416Z,4.82
2022-12-06T03:30:12.684Z,4.77
2022-12-06T03:32:44.257Z,4.76
2022-12-06T03:35:15.175Z,4.72
2022-12-06T03:37:47.836Z,4.72
2022-12-06T03:40:21.682Z,4.70
2022-12-06T03:42:49.817Z,4.68
2022-12-06T03:45:17.647Z,4.66
2022-12-06T03:47:57.595Z,4.64
2022-12-06T03:50:33.974Z,4.59
2022-12-06T03:53:01.895Z,4.58
2022-12-06T03:55:28.936Z,4.54
2022-12-06T03:57:55.956Z,4.52
2022-12-06T04:00:22.997Z,4.50
2022-12-06T04:02:50.044Z,4.44
2022-12-06T04:05:17.195Z,4.45
2022-12-06T04:07:44.327Z,4.44
2022-12-06T04:10:11.662Z,4.42
2022-12-06T04:12:57.215Z,4.44
2022-12-06T04:15:24.295Z,4.40
2022-12-06T04:18:10.156Z,4.29
2022-12-06T04:21:01.057Z,4.15
2022-12-06T04:23:29.264Z,4.04
2022-12-06T04:25:56.316Z,4.02
2022-12-06T04:28:42.115Z,4.03
2022-12-06T04:31:28.008Z,4.06
2022-12-06T04:34:13.842Z,4.06
2022-12-06T04:37:00.556Z,4.19
2022-12-06T04:39:27.975Z,4.29
2022-12-06T04:42:13.755Z,4.35
2022-12-06T04:44:49.221Z,4.40
2022-12-06T04:47:17.763Z,4.46
2022-12-06T04:49:45.055Z,4.51
2022-12-06T04:52:12.303Z,4.56
2022-12-06T04:54:39.788Z,4.57
2022-12-06T04:57:11.797Z,4.64
2022-12-06T04:59:40.938Z,4.67
2022-12-06T05:02:10.295Z,4.75
2022-12-06T05:04:37.377Z,4.81
2022-12-06T05:07:04.848Z,4.84
2022-12-06T05:09:32.003Z,4.88
2022-12-06T05:11:58.935Z,4.91
2022-12-06T05:14:25.854Z,4.94
2022-12-06T05:16:53.376Z,4.95
2022-12-06T05:19:20.399Z,4.99
2022-12-06T05:21:47.416Z,5.04
2022-12-06T05:24:14.585Z,5.09
2022-12-06T05:26:41.602Z,5.11
2022-12-06T05:29:09.407Z,5.13
2022-12-06T05:31:36.536Z,5.19
2022-12-06T05:34:03.624Z,5.19
2022-12-06T05:36:30.598Z,5.22
2022-12-06T05:38:57.845Z,5.26
2022-12-06T05:41:25.125Z,5.28
2022-12-06T05:43:52.145Z,5.31
2022-12-06T05:46:19.259Z,5.30
2022-12-06T05:48:46.402Z,5.29
2022-12-06T05:51:13.427Z,5.31
2022-12-06T05:53:41.607Z,5.27
2022-12-06T05:56:11.075Z,5.32
2022-12-06T05:58:38.496Z,5.33
2022-12-06T06:01:07.566Z,5.35
2022-12-06T06:03:35.340Z,5.34
2022-12-06T06:06:03.708Z,5.28
2022-12-06T06:08:31.698Z,5.31
2022-12-06T06:10:59.226Z,5.33
2022-12-06T06:13:26.234Z,5.32
2022-12-06T06:15:53.226Z,5.25
2022-12-06T06:18:20.597Z,5.34
2022-12-06T06:20:55.376Z,5.28
2022-12-06T06:23:22.576Z,5.29
2022-12-06T06:25:49.574Z,5.27
2022-12-06T06:28:17.535Z,5.28
2022-12-06T06:30:44.996Z,5.31
2022-12-06T06:33:12.044Z,5.22
2022-12-06T06:35:39.499Z,5.17
2022-12-06T06:38:07.275Z,5.20
2022-12-06T06:40:35.102Z,5.15
2022-12-06T06:43:23.135Z,5.17
2022-12-06T06:45:54.066Z,5.12
2022-12-06T06:48:21.946Z,5.05
2022-12-06T06:50:53.880Z,5.01
2022-12-06T06:53:22.700Z,5.05
2022-12-06T06:55:49.649Z,5.03
2022-12-06T06:58:16.647Z,4.99
2022-12-06T07:00:44.065Z,4.95
2022-12-06T07:03:16.163Z,4.95
2022-12-06T07:05:45.804Z,4.96
2022-12-06T07:08:13.289Z,4.99
2022-12-06T07:10:40.435Z,5.06
2022-12-06T07:13:07.356Z,5.08
2022-12-06T07:15:35.525Z,5.13
2022-12-06T07:18:02.506Z,5.14
2022-12-06T07:20:29.437Z,5.12
2022-12-06T07:22:57.075Z,5.13
2022-12-06T07:25:24.075Z,5.13
2022-12-06T07:27:51.098Z,5.15
2022-12-06T07:30:21.573Z,5.17
2022-12-06T07:32:51.281Z,5.19
2022-12-06T07:35:18.267Z,5.20
2022-12-06T07:37:46.416Z,5.18
2022-12-06T07:40:15.005Z,5.25
2022-12-06T07:43:00.693Z,5.29
2022-12-06T07:45:27.924Z,5.30
2022-12-06T07:47:54.945Z,5.36
2022-12-06T07:50:22.895Z,5.37
2022-12-06T07:52:50.915Z,5.35
2022-12-06T07:55:18.462Z,5.32
2022-12-06T07:57:45.405Z,5.34
2022-12-06T08:00:15.794Z,5.34
2022-12-06T08:02:43.315Z,5.36
2022-12-06T08:05:10.845Z,5.38
2022-12-06T08:07:37.978Z,5.41
2022-12-06T08:10:05.754Z,5.45
2022-12-06T08:12:32.955Z,5.42
2022-12-06T08:15:00.374Z,5.46
2022-12-06T08:17:28.017Z,5.45
2022-12-06T08:19:54.946Z,5.52
2022-12-06T08:22:21.980Z,5.54
2022-12-06T08:24:49.016Z,5.59
2022-12-06T08:27:15.914Z,5.58
2022-12-06T08:29:45.411Z,5.37
2022-12-06T08:32:12.407Z,5.43
2022-12-06T08:34:39.443Z,5.59
2022-12-06T08:37:06.435Z,5.60
2022-12-06T08:39:33.350Z,5.65
2022-12-06T08:42:00.367Z,5.68
2022-12-06T08:44:28.527Z,5.68
2022-12-06T08:46:56.199Z,5.72
2022-12-06T08:49:24.516Z,5.72
2022-12-06T08:51:52.305Z,5.78
2022-12-06T08:54:23.044Z,5.84
2022-12-06T08:56:51.016Z,5.92
2022-12-06T08:59:18.913Z,5.99
2022-12-06T09:01:46.220Z,6.02
2022-12-06T09:04:13.604Z,6.06
2022-12-06T09:06:42.083Z,5.94
2022-12-06T09:09:10.576Z,6.06
2022-12-06T09:11:38.315Z,6.09
2022-12-06T09:14:05.765Z,6.20
2022-12-06T09:16:32.873Z,6.15
2022-12-06T09:18:59.894Z,6.36
2022-12-06T09:21:30.771Z,6.52
2022-12-06T09:23:58.677Z,6.76
2022-12-06T09:26:26.565Z,6.62
2022-12-06T09:28:56.055Z,6.79
2022-12-06T09:31:24.008Z,6.84
2022-12-06T09:33:51.645Z,6.88
2022-12-06T09:36:25.352Z,6.80
2022-12-06T09:39:18.475Z,6.79
2022-12-06T09:42:04.175Z,6.79
2022-12-06T09:44:58.734Z,6.76
2022-12-06T09:47:44.076Z,6.77
2022-12-06T09:50:40.306Z,6.76
2022-12-06T09:53:10.063Z,6.76
2022-12-06T09:56:00.783Z,6.77
2022-12-06T09:59:09.836Z,6.95
2022-12-06T10:01:42.979Z,6.97
2022-12-06T10:04:28.577Z,6.75
2022-12-06T10:06:58.405Z,6.99
2022-12-06T10:09:37.117Z,6.80
2022-12-06T10:12:07.103Z,6.89
2022-12-06T10:14:50.336Z,7.00
2022-12-06T10:17:44.684Z,7.02
2022-12-06T10:20:45.805Z,7.06
2022-12-06T10:23:22.559Z,7.19
2022-12-06T10:26:12.615Z,7.22
2022-12-06T10:28:52.655Z,7.26
2022-12-06T10:31:23.812Z,7.38
2022-12-06T10:34:19.835Z,7.56
2022-12-06T10:37:00.805Z,7.75
2022-12-06T10:39:45.983Z,8.01
2022-12-06T10:42:54.106Z,8.31
2022-12-06T10:45:56.565Z,8.68
2022-12-06T10:48:47.357Z,9.09
2022-12-06T10:51:21.490Z,9.51
2022-12-06T10:53:56.794Z,9.88
2022-12-06T10:56:30.112Z,10.08
2022-12-06T10:59:03.897Z,10.23
2022-12-06T11:01:41.741Z,10.29
2022-12-06T11:04:23.315Z,10.24
2022-12-06T11:06:55.066Z,10.38
2022-12-06T11:09:34.595Z,10.58
2022-12-06T11:12:02.028Z,10.77
2022-12-06T11:14:48.116Z,10.87
2022-12-06T11:17:26.763Z,10.91
2022-12-06T11:20:15.305Z,10.96
2022-12-06T11:23:06.237Z,11.14
2022-12-06T11:26:02.066Z,11.28
2022-12-06T11:28:40.583Z,11.32
2022-12-06T11:31:28.601Z,11.44
2022-12-06T11:33:55.915Z,11.61
2022-12-06T11:36:24.818Z,11.79
2022-12-06T11:38:52.970Z,11.99
2022-12-06T11:41:25.543Z,12.26
2022-12-06T11:43:54.379Z,12.41
2022-12-06T11:46:23.380Z,12.54
2022-12-06T11:48:51.232Z,12.77
2022-12-06T11:51:23.160Z,13.06
2022-12-06T11:54:19.254Z,13.20
2022-12-06T11:56:47.035Z,13.47
2022-12-06T11:59:28.772Z,13.69
2022-12-06T12:13:42.176Z,15.75
2022-12-06T12:16:23.622Z,16.82
2022-12-06T12:19:01.637Z,17.72
2022-12-06T12:21:35.979Z,18.52
2022-12-06T12:24:05.274Z,19.13
2022-12-06T12:26:41.800Z,19.55
2022-12-06T12:29:08.727Z,19.97
2022-12-06T12:31:52.786Z,19.28
2022-12-06T12:34:28.574Z,18.79
2022-12-06T12:37:01.054Z,18.38
2022-12-06T12:39:41.410Z,17.98
2022-12-06T12:42:33.194Z,17.31
2022-12-06T12:45:03.500Z,16.46
2022-12-06T12:47:32.095Z,17.10
2022-12-06T12:50:18.804Z,17.60
2022-12-06T12:52:46.134Z,18.13
2022-12-06T12:55:26.976Z,18.87
2022-12-06T12:58:00.536Z,19.00
2022-12-06T13:00:37.505Z,19.35
2022-12-06T13:03:34.844Z,19.87
2022-12-06T13:06:00.184Z,20.39
2022-12-06T13:08:34.888Z,21.12
2022-12-06T13:11:04.667Z,21.84
2022-12-06T13:13:40.496Z,21.89
2022-12-06T13:16:13.588Z,21.77
2022-12-06T13:18:51.254Z,21.65
2022-12-06T13:21:24.553Z,20.97
2022-12-06T13:23:57.252Z,20.35
2022-12-06T13:26:34.135Z,19.22
2022-12-06T13:29:08.519Z,18.48
2022-12-06T13:31:40.235Z,17.81
2022-12-06T13:34:14.235Z,16.70
2022-12-06T13:36:41.539Z,15.65
2022-12-06T13:39:30.000Z,15.38
2022-12-06T13:42:20.549Z,14.87
2022-12-06T13:44:50.314Z,14.41
2022-12-06T13:47:29.516Z,13.83
2022-12-06T13:50:04.693Z,13.39
2022-12-06T13:52:43.808Z,12.93
2022-12-06T13:55:26.153Z,12.57
2022-12-06T13:57:56.001Z,12.20
2022-12-06T14:00:29.351Z,11.92
2022-12-06T14:03:03.958Z,11.67
2022-12-06T14:08:39.797Z,11.32
2022-12-06T14:11:06.815Z,11.07
2022-12-06T14:13:33.818Z,10.90
2022-12-06T14:16:01.135Z,10.68
2022-12-06T14:18:29.783Z,10.45
2022-12-06T14:20:58.243Z,10.34
2022-12-06T14:23:26.834Z,10.16
2022-12-06T14:26:22.216Z,9.96
2022-12-06T14:28:50.637Z,9.84
2022-12-06T14:31:40.644Z,9.70
2022-12-06T14:34:24.977Z,9.63
2022-12-06T14:36:52.215Z,9.49
2022-12-06T14:39:23.136Z,9.34
2022-12-06T14:42:24.421Z,9.18
2022-12-06T14:45:02.035Z,8.98
2022-12-06T14:47:31.054Z,8.90
2022-12-06T14:50:19.248Z,8.69
2022-12-06T14:53:05.515Z,8.56
2022-12-06T14:55:36.695Z,8.50
2022-12-06T14:58:16.446Z,8.43
2022-12-06T15:00:54.937Z,8.37
2022-12-06T15:03:42.991Z,8.25
2022-12-06T15:06:22.199Z,8.09
2022-12-06T15:09:11.036Z,8.03
2022-12-06T15:11:58.778Z,7.97
2022-12-06T15:14:39.502Z,7.85
2022-12-06T15:17:21.956Z,7.74
2022-12-06T15:19:51.457Z,7.59
2022-12-06T15:22:24.989Z,7.49
2022-12-06T15:24:55.539Z,7.40
2022-12-06T15:27:24.119Z,7.31
2022-12-06T15:29:51.084Z,7.29
2022-12-06T15:32:19.577Z,7.24
2022-12-06T15:34:46.816Z,7.20
2022-12-06T15:37:38.060Z,7.17
2022-12-06T15:40:04.485Z,7.14
2022-12-06T15:42:31.555Z,7.13
2022-12-06T15:44:58.524Z,7.04
2022-12-06T15:47:25.487Z,7.00
2022-12-06T15:49:54.119Z,6.98
2022-12-06T15:52:23.714Z,6.91
2022-12-06T15:54:51.356Z,6.82
2022-12-06T15:57:18.357Z,6.73
2022-12-06T15:59:45.305Z,6.69
2022-12-06T16:02:15.801Z,6.65
2022-12-06T16:04:43.782Z,6.58
2022-12-06T16:07:10.905Z,6.54
2022-12-06T16:09:38.420Z,6.48
2022-12-06T16:12:05.558Z,6.42
2022-12-06T16:14:32.742Z,6.38
2022-12-06T16:16:59.777Z,6.32
2022-12-06T16:19:49.714Z,6.28
2022-12-06T16:22:16.870Z,6.23
2022-12-06T16:24:43.804Z,6.21
2022-12-06T16:27:10.756Z,6.18
2022-12-06T16:29:37.788Z,6.13
2022-12-06T16:32:04.807Z,6.10
2022-12-06T16:34:31.735Z,6.06
2022-12-06T16:37:00.234Z,6.03
2022-12-06T16:39:28.207Z,6.01
2022-12-06T16:41:55.253Z,6.02
2022-12-06T16:44:22.515Z,6.01
2022-12-06T16:46:49.860Z,5.94
2022-12-06T16:52:11.965Z,5.85
2022-12-06T16:54:42.520Z,5.76
2022-12-06T16:57:11.935Z,5.75
2022-12-06T16:59:39.137Z,5.74
2022-12-06T17:02:26.690Z,5.70
2022-12-06T17:04:54.659Z,5.68
2022-12-06T17:07:21.612Z,5.65
2022-12-06T17:09:48.650Z,5.61
2022-12-06T17:12:15.697Z,5.56
2022-12-06T17:14:43.144Z,5.42
2022-12-06T17:17:18.819Z,5.41
2022-12-06T17:19:46.067Z,5.29
2022-12-06T17:22:16.479Z,5.07
2022-12-06T17:24:43.912Z,4.80
2022-12-06T17:27:14.786Z,4.94
2022-12-06T17:29:43.722Z,4.87
2022-12-06T17:32:10.944Z,4.79
2022-12-06T17:34:38.117Z,4.74
2022-12-06T17:37:06.341Z,4.61
2022-12-06T17:39:33.401Z,4.53
2022-12-06T17:42:19.211Z,4.50
2022-12-06T17:44:46.259Z,4.47
2022-12-06T17:47:13.265Z,4.51
2022-12-06T17:49:40.508Z,4.44
2022-12-06T17:52:07.865Z,4.44
2022-12-06T17:54:34.897Z,4.29
2022-12-06T17:57:01.887Z,4.27
2022-12-06T17:59:33.168Z,4.13
2022-12-06T18:02:20.061Z,4.11
2022-12-06T18:04:50.989Z,4.08
2022-12-06T18:07:23.613Z,4.03
2022-12-06T18:09:51.085Z,4.01
2022-12-06T18:12:18.147Z,3.98
2022-12-06T18:14:45.665Z,3.99
2022-12-06T18:17:13.042Z,3.96
2022-12-06T18:19:41.042Z,3.98
2022-12-06T18:22:08.178Z,3.97
2022-12-06T18:24:36.333Z,3.93
2022-12-06T18:27:04.154Z,3.93
2022-12-06T18:29:31.218Z,3.90
2022-12-06T18:31:58.389Z,3.87
2022-12-06T18:34:25.475Z,3.86
2022-12-06T18:36:52.529Z,3.82
2022-12-06T18:39:26.674Z,3.84
2022-12-06T18:41:54.469Z,3.77
2022-12-06T18:44:22.088Z,3.78
2022-12-06T18:46:49.166Z,3.83
2022-12-06T18:49:16.343Z,3.85
2022-12-06T18:51:45.204Z,3.87
2022-12-06T18:54:14.361Z,3.81
2022-12-06T18:56:42.625Z,3.79
2022-12-06T18:59:11.320Z,3.82
2022-12-06T19:01:39.603Z,3.87
2022-12-06T19:04:08.794Z,3.90
2022-12-06T19:06:37.803Z,3.94
2022-12-06T19:09:08.065Z,3.88
2022-12-06T19:11:43.183Z,3.90
2022-12-06T19:14:10.641Z,3.96
2022-12-06T19:16:48.894Z,3.88
2022-12-06T19:19:23.096Z,3.90
2022-12-06T19:21:52.472Z,3.91
2022-12-06T19:24:23.045Z,3.93
2022-12-06T19:26:54.400Z,3.95
2022-12-06T19:29:22.366Z,4.02
2022-12-06T19:31:49.716Z,4.02
2022-12-06T19:34:26.808Z,4.04
2022-12-06T19:36:56.079Z,4.01
2022-12-06T19:39:24.705Z,4.08
2022-12-06T19:42:10.675Z,4.07
2022-12-06T19:44:38.416Z,4.08
2022-12-06T19:47:05.860Z,4.11
2022-12-06T19:49:35.053Z,4.11
2022-12-06T19:52:02.890Z,4.14
2022-12-06T19:54:32.676Z,4.07
2022-12-06T19:57:01.339Z,4.09
2022-12-06T19:59:31.731Z,4.08
2022-12-06T20:01:59.720Z,4.02
2022-12-06T20:04:31.478Z,4.01
2022-12-06T20:06:59.388Z,4.06
2022-12-06T20:09:28.776Z,4.07
2022-12-06T20:12:04.047Z,4.07
2022-12-06T20:14:36.795Z,4.09
2022-12-06T20:17:06.825Z,4.08
2022-12-06T20:19:34.772Z,4.08
2022-12-06T20:22:01.966Z,4.11
2022-12-06T20:24:29.447Z,4.16
2022-12-06T20:26:56.839Z,4.16
2022-12-06T20:29:27.191Z,4.17
2022-12-06T20:31:58.087Z,4.15
2022-12-06T20:34:26.192Z,4.18
2022-12-06T20:36:53.115Z,4.18
2022-12-06T20:39:25.957Z,4.13
2022-12-06T20:41:54.005Z,4.08
2022-12-06T20:44:21.770Z,4.07
2022-12-06T20:46:50.061Z,4.05
2022-12-06T20:49:20.947Z,3.99
2022-12-06T20:51:52.973Z,3.96
2022-12-06T20:54:21.220Z,3.98
2022-12-06T20:56:51.916Z,4.00
2022-12-06T20:59:19.482Z,3.98
2022-12-06T21:01:46.806Z,3.97
2022-12-06T21:04:14.218Z,4.02
2022-12-06T21:06:41.586Z,4.04
2022-12-06T21:09:08.693Z,4.08
2022-12-06T21:11:35.744Z,4.12
2022-12-06T21:14:04.106Z,4.16
2022-12-06T21:16:33.253Z,4.18
2022-12-06T21:19:06.410Z,4.23
2022-12-06T21:21:35.708Z,4.26
2022-12-06T21:24:05.292Z,4.26
2022-12-06T21:26:32.865Z,4.27
2022-12-06T21:29:00.039Z,4.27
2022-12-06T21:31:29.076Z,4.29
2022-12-06T21:33:57.200Z,4.32
2022-12-06T21:36:25.357Z,4.26
2022-12-06T21:38:52.861Z,4.32
2022-12-06T21:41:20.627Z,4.32
2022-12-06T21:43:48.093Z,4.33
2022-12-06T21:46:21.355Z,4.37
2022-12-06T21:48:55.857Z,4.36
2022-12-06T21:51:24.278Z,4.37
2022-12-06T21:53:51.916Z,4.34
2022-12-06T21:56:21.935Z,4.37
2022-12-06T21:58:49.458Z,4.37
2022-12-06T22:01:19.479Z,4.36
2022-12-06T22:03:49.983Z,4.36
2022-12-06T22:06:17.649Z,4.35
2022-12-06T22:08:45.956Z,4.39
2022-12-06T22:11:17.786Z,4.38
2022-12-06T22:13:45.837Z,4.41
2022-12-06T22:16:13.581Z,4.43
2022-12-06T22:18:45.438Z,4.44
2022-12-06T22:21:21.335Z,4.44
2022-12-06T22:23:48.685Z,4.45
2022-12-06T22:26:18.448Z,4.46
2022-12-06T22:28:45.946Z,4.43
2022-12-06T22:31:15.717Z,4.41
2022-12-06T22:33:42.867Z,4.40
2022-12-06T22:36:11.566Z,4.40
2022-12-06T22:38:39.427Z,4.39
2022-12-06T22:41:07.039Z,4.37
2022-12-06T22:43:35.122Z,4.36
2022-12-06T22:46:10.861Z,4.36
2022-12-06T22:48:38.919Z,4.29
2022-12-06T22:51:25.583Z,4.31
2022-12-06T22:54:01.164Z,4.34
2022-12-06T22:56:29.275Z,4.35
2022-12-06T22:58:57.915Z,4.36
2022-12-06T23:01:27.975Z,4.32
2022-12-06T23:03:55.747Z,4.31
2022-12-06T23:06:25.122Z,4.32
2022-12-06T23:08:53.001Z,4.31
2022-12-06T23:11:32.068Z,4.16
2022-12-06T23:13:59.376Z,4.17
2022-12-06T23:16:28.468Z,4.10
2022-12-06T23:18:56.238Z,4.08
2022-12-06T23:21:28.994Z,4.07
2022-12-06T23:24:00.847Z,4.03
2022-12-06T23:26:30.715Z,3.98
2022-12-06T23:28:57.856Z,3.94
2022-12-06T23:31:27.976Z,3.95
2022-12-06T23:34:14.475Z,3.87
2022-12-06T23:36:42.075Z,3.85
2022-12-06T23:39:10.157Z,3.86
2022-12-06T23:41:37.218Z,3.81
2022-12-06T23:44:05.785Z,3.78
2022-12-06T23:46:35.641Z,3.69
2022-12-06T23:49:03.453Z,3.65
2022-12-06T23:51:34.499Z,3.60
2022-12-06T23:54:03.400Z,3.56
2022-12-06T23:56:32.837Z,3.58
2022-12-06T23:59:01.142Z,3.57
